sensor_id;sensor_type;location;lat;lon;timestamp;P1;durP1;ratioP1;P2;durP2;ratioP2
1987;SDS011;12775;46.994;15.498;2022-12-29T00:01:29;25.08;;;17.40;;
1987;SDS011;12775;46.994;15.498;2022-12-29T00:03:55;22.54;;;17.88;;
1987;SDS011;12775;46.994;15.498;2022-12-29T00:06:22;28.00;;;14.26;;
1987;SDS011;12775;46.994;15.498;2022-12-29T00:08:49;22.86;;;14.48;;
1987;SDS011;12775;46.994;15.498;2022-12-29T00:11:18;25.42;;;17.38;;
1987;SDS011;12775;46.994;15.498;2022-12-29T00:13:45;21.22;;;15.34;;
1987;SDS011;12775;46.994;15.498;2022-12-29T00:16:19;24.62;;;17.24;;
1987;SDS011;12775;46.994;15.498;2022-12-29T00:18:46;26.24;;;18.38;;
1987;SDS011;12775;46.994;15.498;2022-12-29T00:21:14;21.56;;;16.88;;
1987;SDS011;12775;46.994;15.498;2022-12-29T00:23:46;23.04;;;19.58;;
1987;SDS011;12775;46.994;15.498;2022-12-29T00:26:19;28.80;;;17.80;;
1987;SDS011;12775;46.994;15.498;2022-12-29T00:28:53;25.94;;;17.70;;
1987;SDS011;12775;46.994;15.498;2022-12-29T00:31:26;27.26;;;19.76;;
1987;SDS011;12775;46.994;15.498;2022-12-29T00:33:59;25.48;;;19.88;;
1987;SDS011;12775;46.994;15.498;2022-12-29T00:36:33;29.84;;;19.24;;
1987;SDS011;12775;46.994;15.498;2022-12-29T00:39:03;28.38;;;17.64;;
1987;SDS011;12775;46.994;15.498;2022-12-29T00:41:35;25.62;;;17.36;;
1987;SDS011;12775;46.994;15.498;2022-12-29T00:44:09;23.58;;;18.74;;
1987;SDS011;12775;46.994;15.498;2022-12-29T00:46:37;28.08;;;17.66;;
1987;SDS011;12775;46.994;15.498;2022-12-29T00:49:05;24.50;;;16.90;;
1987;SDS011;12775;46.994;15.498;2022-12-29T00:51:38;23.26;;;15.50;;
1987;SDS011;12775;46.994;15.498;2022-12-29T00:54:06;19.94;;;15.18;;
1987;SDS011;12775;46.994;15.498;2022-12-29T00:56:34;22.00;;;17.84;;
1987;SDS011;12775;46.994;15.498;2022-12-29T00:59:04;24.28;;;16.58;;
1987;SDS011;12775;46.994;15.498;2022-12-29T01:01:31;21.88;;;17.24;;
1987;SDS011;12775;46.994;15.498;2022-12-29T01:03:59;21.42;;;15.16;;
1987;SDS011;12775;46.994;15.498;2022-12-29T01:06:27;24.46;;;16.08;;
1987;SDS011;12775;46.994;15.498;2022-12-29T01:08:54;25.28;;;18.20;;
1987;SDS011;12775;46.994;15.498;2022-12-29T01:11:28;24.82;;;17.66;;
1987;SDS011;12775;46.994;15.498;2022-12-29T01:13:54;23.58;;;17.72;;
1987;SDS011;12775;46.994;15.498;2022-12-29T01:16:21;28.22;;;17.82;;
1987;SDS011;12775;46.994;15.498;2022-12-29T01:18:49;23.10;;;19.14;;
1987;SDS011;12775;46.994;15.498;2022-12-29T01:21:16;22.84;;;19.00;;
1987;SDS011;12775;46.994;15.498;2022-12-29T01:23:44;29.72;;;19.96;;
1987;SDS011;12775;46.994;15.498;2022-12-29T01:26:12;32.58;;;20.14;;
1987;SDS011;12775;46.994;15.498;2022-12-29T01:28:38;25.58;;;18.72;;
1987;SDS011;12775;46.994;15.498;2022-12-29T01:31:04;29.76;;;18.72;;
1987;SDS011;12775;46.994;15.498;2022-12-29T01:33:32;26.50;;;18.48;;
1987;SDS011;12775;46.994;15.498;2022-12-29T01:36:00;25.02;;;16.64;;
1987;SDS011;12775;46.994;15.498;2022-12-29T01:38:28;25.04;;;17.06;;
1987;SDS011;12775;46.994;15.498;2022-12-29T01:40:55;24.98;;;21.06;;
1987;SDS011;12775;46.994;15.498;2022-12-29T01:43:45;23.88;;;18.40;;
1987;SDS011;12775;46.994;15.498;2022-12-29T01:48:54;20.48;;;16.28;;
1987;SDS011;12775;46.994;15.498;2022-12-29T01:51:22;24.50;;;18.30;;
1987;SDS011;12775;46.994;15.498;2022-12-29T01:53:49;23.52;;;16.16;;
1987;SDS011;12775;46.994;15.498;2022-12-29T01:56:17;27.90;;;20.08;;
1987;SDS011;12775;46.994;15.498;2022-12-29T01:58:44;21.80;;;16.56;;
1987;SDS011;12775;46.994;15.498;2022-12-29T02:01:11;23.18;;;17.44;;
1987;SDS011;12775;46.994;15.498;2022-12-29T02:03:38;21.80;;;16.38;;
1987;SDS011;12775;46.994;15.498;2022-12-29T02:06:08;26.98;;;17.70;;
1987;SDS011;12775;46.994;15.498;2022-12-29T02:08:35;19.92;;;16.82;;
1987;SDS011;12775;46.994;15.498;2022-12-29T02:11:02;23.56;;;16.84;;
1987;SDS011;12775;46.994;15.498;2022-12-29T02:13:29;21.20;;;15.56;;
1987;SDS011;12775;46.994;15.498;2022-12-29T02:16:03;24.32;;;16.66;;
1987;SDS011;12775;46.994;15.498;2022-12-29T02:18:43;31.82;;;19.30;;
1987;SDS011;12775;46.994;15.498;2022-12-29T02:21:23;29.44;;;17.92;;
1987;SDS011;12775;46.994;15.498;2022-12-29T02:24:08;26.16;;;18.02;;
1987;SDS011;12775;46.994;15.498;2022-12-29T02:26:45;21.36;;;15.78;;
1987;SDS011;12775;46.994;15.498;2022-12-29T02:32:12;22.64;;;15.32;;
1987;SDS011;12775;46.994;15.498;2022-12-29T02:35:27;22.36;;;17.14;;
1987;SDS011;12775;46.994;15.498;2022-12-29T02:37:42;23.46;;;14.72;;
1987;SDS011;12775;46.994;15.498;2022-12-29T02:40:33;25.94;;;17.32;;
1987;SDS011;12775;46.994;15.498;2022-12-29T02:43:04;21.42;;;14.74;;
1987;SDS011;12775;46.994;15.498;2022-12-29T02:45:35;26.84;;;15.60;;
1987;SDS011;12775;46.994;15.498;2022-12-29T02:48:08;21.62;;;15.08;;
1987;SDS011;12775;46.994;15.498;2022-12-29T02:50:37;21.72;;;16.42;;
1987;SDS011;12775;46.994;15.498;2022-12-29T02:53:07;23.28;;;16.16;;
1987;SDS011;12775;46.994;15.498;2022-12-29T02:55:33;25.64;;;15.30;;
1987;SDS011;12775;46.994;15.498;2022-12-29T02:58:09;19.36;;;15.92;;
1987;SDS011;12775;46.994;15.498;2022-12-29T03:00:52;21.40;;;15.30;;
1987;SDS011;12775;46.994;15.498;2022-12-29T03:03:32;24.06;;;15.24;;
1987;SDS011;12775;46.994;15.498;2022-12-29T03:06:16;27.52;;;15.28;;
1987;SDS011;12775;46.994;15.498;2022-12-29T03:08:48;15.44;;;13.06;;
1987;SDS011;12775;46.994;15.498;2022-12-29T03:11:12;20.92;;;14.64;;
1987;SDS011;12775;46.994;15.498;2022-12-29T03:13:46;17.82;;;14.26;;
1987;SDS011;12775;46.994;15.498;2022-12-29T03:16:28;20.30;;;15.22;;
1987;SDS011;12775;46.994;15.498;2022-12-29T03:18:59;24.62;;;15.22;;
1987;SDS011;12775;46.994;15.498;2022-12-29T03:21:32;18.04;;;13.44;;
1987;SDS011;12775;46.994;15.498;2022-12-29T03:24:10;23.76;;;16.06;;
1987;SDS011;12775;46.994;15.498;2022-12-29T03:26:37;18.68;;;13.70;;
1987;SDS011;12775;46.994;15.498;2022-12-29T03:29:04;19.26;;;13.16;;
1987;SDS011;12775;46.994;15.498;2022-12-29T03:31:32;17.06;;;12.84;;
1987;SDS011;12775;46.994;15.498;2022-12-29T03:33:59;24.16;;;13.68;;
1987;SDS011;12775;46.994;15.498;2022-12-29T03:36:30;17.78;;;13.70;;
1987;SDS011;12775;46.994;15.498;2022-12-29T03:38:58;27.28;;;15.20;;
1987;SDS011;12775;46.994;15.498;2022-12-29T03:41:28;16.26;;;14.12;;
1987;SDS011;12775;46.994;15.498;2022-12-29T03:43:54;18.84;;;14.02;;
1987;SDS011;12775;46.994;15.498;2022-12-29T03:46:22;21.26;;;14.18;;
1987;SDS011;12775;46.994;15.498;2022-12-29T03:48:49;17.54;;;12.30;;
1987;SDS011;12775;46.994;15.498;2022-12-29T03:51:16;16.62;;;12.54;;
1987;SDS011;12775;46.994;15.498;2022-12-29T03:53:44;21.82;;;15.76;;
1987;SDS011;12775;46.994;15.498;2022-12-29T03:56:11;19.82;;;14.10;;
1987;SDS011;12775;46.994;15.498;2022-12-29T03:58:38;22.24;;;13.48;;
1987;SDS011;12775;46.994;15.498;2022-12-29T04:01:06;20.76;;;15.36;;
1987;SDS011;12775;46.994;15.498;2022-12-29T04:03:34;27.00;;;17.00;;
1987;SDS011;12775;46.994;15.498;2022-12-29T04:06:02;26.62;;;18.76;;
1987;SDS011;12775;46.994;15.498;2022-12-29T04:08:29;26.10;;;17.78;;
1987;SDS011;12775;46.994;15.498;2022-12-29T04:10:56;24.10;;;16.44;;
1987;SDS011;12775;46.994;15.498;2022-12-29T04:13:24;21.28;;;17.26;;
1987;SDS011;12775;46.994;15.498;2022-12-29T04:15:51;28.66;;;18.10;;
1987;SDS011;12775;46.994;15.498;2022-12-29T04:18:18;25.90;;;18.56;;
1987;SDS011;12775;46.994;15.498;2022-12-29T04:20:47;27.78;;;18.88;;
1987;SDS011;12775;46.994;15.498;2022-12-29T04:23:20;26.92;;;18.58;;
1987;SDS011;12775;46.994;15.498;2022-12-29T04:25:48;23.80;;;18.06;;
1987;SDS011;12775;46.994;15.498;2022-12-29T04:28:16;29.44;;;19.62;;
1987;SDS011;12775;46.994;15.498;2022-12-29T04:30:43;27.26;;;18.22;;
1987;SDS011;12775;46.994;15.498;2022-12-29T04:33:10;22.84;;;17.14;;
1987;SDS011;12775;46.994;15.498;2022-12-29T04:35:38;27.68;;;19.52;;
1987;SDS011;12775;46.994;15.498;2022-12-29T04:38:05;25.66;;;18.26;;
1987;SDS011;12775;46.994;15.498;2022-12-29T04:40:32;22.24;;;14.90;;
1987;SDS011;12775;46.994;15.498;2022-12-29T04:43:00;25.88;;;16.50;;
1987;SDS011;12775;46.994;15.498;2022-12-29T04:45:27;24.06;;;16.20;;
1987;SDS011;12775;46.994;15.498;2022-12-29T04:47:54;27.60;;;14.86;;
1987;SDS011;12775;46.994;15.498;2022-12-29T04:50:23;24.06;;;14.06;;
1987;SDS011;12775;46.994;15.498;2022-12-29T04:52:50;18.62;;;15.62;;
1987;SDS011;12775;46.994;15.498;2022-12-29T04:55:18;27.44;;;16.74;;
1987;SDS011;12775;46.994;15.498;2022-12-29T04:57:46;19.58;;;15.54;;
1987;SDS011;12775;46.994;15.498;2022-12-29T05:00:13;25.16;;;14.36;;
1987;SDS011;12775;46.994;15.498;2022-12-29T05:02:41;23.04;;;15.80;;
1987;SDS011;12775;46.994;15.498;2022-12-29T05:05:09;25.64;;;14.92;;
1987;SDS011;12775;46.994;15.498;2022-12-29T05:07:37;22.04;;;17.18;;
1987;SDS011;12775;46.994;15.498;2022-12-29T05:10:05;19.12;;;14.74;;
1987;SDS011;12775;46.994;15.498;2022-12-29T05:12:34;21.96;;;15.92;;
1987;SDS011;12775;46.994;15.498;2022-12-29T05:15:01;19.46;;;14.78;;
1987;SDS011;12775;46.994;15.498;2022-12-29T05:17:29;19.58;;;15.32;;
1987;SDS011;12775;46.994;15.498;2022-12-29T05:19:57;27.02;;;15.92;;
1987;SDS011;12775;46.994;15.498;2022-12-29T05:22:25;24.14;;;17.38;;
1987;SDS011;12775;46.994;15.498;2022-12-29T05:24:52;20.84;;;15.04;;
1987;SDS011;12775;46.994;15.498;2022-12-29T05:27:20;19.44;;;15.26;;
1987;SDS011;12775;46.994;15.498;2022-12-29T05:29:47;26.64;;;15.98;;
1987;SDS011;12775;46.994;15.498;2022-12-29T05:32:15;23.16;;;16.74;;
1987;SDS011;12775;46.994;15.498;2022-12-29T05:34:41;21.08;;;15.22;;
1987;SDS011;12775;46.994;15.498;2022-12-29T05:37:09;21.56;;;15.56;;
1987;SDS011;12775;46.994;15.498;2022-12-29T05:39:36;21.96;;;13.18;;
1987;SDS011;12775;46.994;15.498;2022-12-29T05:42:03;18.38;;;13.56;;
1987;SDS011;12775;46.994;15.498;2022-12-29T05:44:32;15.82;;;12.50;;
1987;SDS011;12775;46.994;15.498;2022-12-29T05:46:59;16.54;;;12.50;;
1987;SDS011;12775;46.994;15.498;2022-12-29T05:49:27;19.26;;;13.18;;
1987;SDS011;12775;46.994;15.498;2022-12-29T05:51:54;20.44;;;14.32;;
1987;SDS011;12775;46.994;15.498;2022-12-29T05:54:21;23.48;;;14.18;;
1987;SDS011;12775;46.994;15.498;2022-12-29T05:56:49;22.04;;;15.14;;
1987;SDS011;12775;46.994;15.498;2022-12-29T05:59:16;22.40;;;17.58;;
1987;SDS011;12775;46.994;15.498;2022-12-29T06:01:44;24.44;;;17.88;;
1987;SDS011;12775;46.994;15.498;2022-12-29T06:04:12;22.72;;;16.66;;
1987;SDS011;12775;46.994;15.498;2022-12-29T06:06:39;19.46;;;17.22;;
1987;SDS011;12775;46.994;15.498;2022-12-29T06:09:09;23.60;;;16.66;;
1987;SDS011;12775;46.994;15.498;2022-12-29T06:11:34;26.34;;;17.10;;
1987;SDS011;12775;46.994;15.498;2022-12-29T06:14:01;21.16;;;15.70;;
1987;SDS011;12775;46.994;15.498;2022-12-29T06:16:29;24.50;;;16.98;;
1987;SDS011;12775;46.994;15.498;2022-12-29T06:18:56;16.94;;;12.90;;
1987;SDS011;12775;46.994;15.498;2022-12-29T06:21:23;20.06;;;15.64;;
1987;SDS011;12775;46.994;15.498;2022-12-29T06:23:51;22.56;;;14.70;;
1987;SDS011;12775;46.994;15.498;2022-12-29T06:26:18;18.90;;;13.72;;
1987;SDS011;12775;46.994;15.498;2022-12-29T06:28:45;20.02;;;15.32;;
1987;SDS011;12775;46.994;15.498;2022-12-29T06:31:13;25.52;;;14.52;;
1987;SDS011;12775;46.994;15.498;2022-12-29T06:33:40;20.20;;;14.64;;
1987;SDS011;12775;46.994;15.498;2022-12-29T06:36:08;17.44;;;14.18;;
1987;SDS011;12775;46.994;15.498;2022-12-29T06:38:35;22.74;;;14.10;;
1987;SDS011;12775;46.994;15.498;2022-12-29T06:41:02;21.60;;;13.44;;
1987;SDS011;12775;46.994;15.498;2022-12-29T06:43:30;16.02;;;12.32;;
1987;SDS011;12775;46.994;15.498;2022-12-29T06:45:56;25.92;;;14.88;;
1987;SDS011;12775;46.994;15.498;2022-12-29T06:48:24;23.08;;;18.34;;
1987;SDS011;12775;46.994;15.498;2022-12-29T06:50:51;22.24;;;18.02;;
1987;SDS011;12775;46.994;15.498;2022-12-29T06:53:18;26.24;;;16.46;;
1987;SDS011;12775;46.994;15.498;2022-12-29T06:55:46;22.84;;;16.46;;
1987;SDS011;12775;46.994;15.498;2022-12-29T06:58:13;23.72;;;15.72;;
1987;SDS011;12775;46.994;15.498;2022-12-29T07:00:41;24.34;;;15.40;;
1987;SDS011;12775;46.994;15.498;2022-12-29T07:03:08;18.34;;;14.60;;
1987;SDS011;12775;46.994;15.498;2022-12-29T07:05:35;22.42;;;16.32;;
1987;SDS011;12775;46.994;15.498;2022-12-29T07:08:03;22.92;;;15.68;;
1987;SDS011;12775;46.994;15.498;2022-12-29T07:10:30;22.74;;;16.40;;
1987;SDS011;12775;46.994;15.498;2022-12-29T07:12:57;21.40;;;14.92;;
1987;SDS011;12775;46.994;15.498;2022-12-29T07:15:25;21.46;;;17.56;;
1987;SDS011;12775;46.994;15.498;2022-12-29T07:17:53;21.80;;;15.30;;
1987;SDS011;12775;46.994;15.498;2022-12-29T07:20:21;18.28;;;15.22;;
1987;SDS011;12775;46.994;15.498;2022-12-29T07:22:49;20.30;;;14.70;;
1987;SDS011;12775;46.994;15.498;2022-12-29T07:25:17;22.92;;;14.68;;
1987;SDS011;12775;46.994;15.498;2022-12-29T07:27:44;22.60;;;17.38;;
1987;SDS011;12775;46.994;15.498;2022-12-29T07:30:12;21.62;;;16.68;;
1987;SDS011;12775;46.994;15.498;2022-12-29T07:32:39;21.88;;;15.62;;
1987;SDS011;12775;46.994;15.498;2022-12-29T07:35:07;26.18;;;17.22;;
1987;SDS011;12775;46.994;15.498;2022-12-29T07:37:35;23.52;;;18.74;;
1987;SDS011;12775;46.994;15.498;2022-12-29T07:40:03;24.62;;;18.76;;
1987;SDS011;12775;46.994;15.498;2022-12-29T07:42:31;25.80;;;19.12;;
1987;SDS011;12775;46.994;15.498;2022-12-29T07:44:58;35.22;;;20.20;;
1987;SDS011;12775;46.994;15.498;2022-12-29T07:47:26;25.76;;;17.94;;
1987;SDS011;12775;46.994;15.498;2022-12-29T07:49:54;30.44;;;21.20;;
1987;SDS011;12775;46.994;15.498;2022-12-29T07:52:22;26.08;;;18.84;;
1987;SDS011;12775;46.994;15.498;2022-12-29T07:54:50;29.54;;;19.42;;
1987;SDS011;12775;46.994;15.498;2022-12-29T07:57:17;25.12;;;19.56;;
1987;SDS011;12775;46.994;15.498;2022-12-29T07:59:44;26.28;;;20.92;;
1987;SDS011;12775;46.994;15.498;2022-12-29T08:02:12;24.58;;;19.10;;
1987;SDS011;12775;46.994;15.498;2022-12-29T08:04:38;29.24;;;16.74;;
1987;SDS011;12775;46.994;15.498;2022-12-29T08:07:06;24.26;;;17.80;;
1987;SDS011;12775;46.994;15.498;2022-12-29T08:09:34;24.36;;;19.34;;
1987;SDS011;12775;46.994;15.498;2022-12-29T08:12:01;26.24;;;17.72;;
1987;SDS011;12775;46.994;15.498;2022-12-29T08:14:29;26.20;;;17.96;;
1987;SDS011;12775;46.994;15.498;2022-12-29T08:16:56;26.76;;;20.20;;
1987;SDS011;12775;46.994;15.498;2022-12-29T08:19:23;28.58;;;19.48;;
1987;SDS011;12775;46.994;15.498;2022-12-29T08:21:52;25.64;;;18.94;;
1987;SDS011;12775;46.994;15.498;2022-12-29T08:24:19;27.64;;;19.24;;
1987;SDS011;12775;46.994;15.498;2022-12-29T08:26:46;27.86;;;20.12;;
1987;SDS011;12775;46.994;15.498;2022-12-29T08:29:14;26.06;;;20.60;;
1987;SDS011;12775;46.994;15.498;2022-12-29T08:31:41;26.82;;;19.82;;
1987;SDS011;12775;46.994;15.498;2022-12-29T08:34:08;31.70;;;22.30;;
1987;SDS011;12775;46.994;15.498;2022-12-29T08:36:36;30.80;;;19.24;;
1987;SDS011;12775;46.994;15.498;2022-12-29T08:39:03;19.86;;;16.98;;
1987;SDS011;12775;46.994;15.498;2022-12-29T08:41:30;22.90;;;17.44;;
1987;SDS011;12775;46.994;15.498;2022-12-29T08:43:58;23.68;;;18.78;;
1987;SDS011;12775;46.994;15.498;2022-12-29T08:46:25;28.36;;;20.76;;
1987;SDS011;12775;46.994;15.498;2022-12-29T08:48:53;32.38;;;22.46;;
1987;SDS011;12775;46.994;15.498;2022-12-29T08:51:20;32.78;;;24.84;;
1987;SDS011;12775;46.994;15.498;2022-12-29T08:53:47;34.72;;;24.52;;
1987;SDS011;12775;46.994;15.498;2022-12-29T08:56:15;35.26;;;24.60;;
1987;SDS011;12775;46.994;15.498;2022-12-29T08:58:42;27.42;;;21.78;;
1987;SDS011;12775;46.994;15.498;2022-12-29T09:01:09;21.74;;;18.20;;
1987;SDS011;12775;46.994;15.498;2022-12-29T09:03:37;22.20;;;18.62;;
1987;SDS011;12775;46.994;15.498;2022-12-29T09:06:04;25.86;;;20.64;;
1987;SDS011;12775;46.994;15.498;2022-12-29T09:08:31;26.66;;;19.92;;
1987;SDS011;12775;46.994;15.498;2022-12-29T09:11:06;25.46;;;19.12;;
1987;SDS011;12775;46.994;15.498;2022-12-29T09:13:42;24.60;;;19.28;;
1987;SDS011;12775;46.994;15.498;2022-12-29T09:16:09;27.74;;;18.72;;
1987;SDS011;12775;46.994;15.498;2022-12-29T09:18:38;21.50;;;16.08;;
1987;SDS011;12775;46.994;15.498;2022-12-29T09:21:06;21.78;;;17.70;;
1987;SDS011;12775;46.994;15.498;2022-12-29T09:23:33;20.20;;;17.32;;
1987;SDS011;12775;46.994;15.498;2022-12-29T09:26:00;18.84;;;16.86;;
1987;SDS011;12775;46.994;15.498;2022-12-29T09:28:27;28.60;;;18.88;;
1987;SDS011;12775;46.994;15.498;2022-12-29T09:30:55;24.12;;;19.56;;
1987;SDS011;12775;46.994;15.498;2022-12-29T09:33:22;21.00;;;16.22;;
1987;SDS011;12775;46.994;15.498;2022-12-29T09:35:50;23.90;;;17.02;;
1987;SDS011;12775;46.994;15.498;2022-12-29T09:38:18;23.24;;;16.52;;
1987;SDS011;12775;46.994;15.498;2022-12-29T09:40:49;20.86;;;15.02;;
1987;SDS011;12775;46.994;15.498;2022-12-29T09:43:21;18.66;;;15.06;;
1987;SDS011;12775;46.994;15.498;2022-12-29T09:45:49;18.60;;;15.06;;
1987;SDS011;12775;46.994;15.498;2022-12-29T09:48:17;22.86;;;13.16;;
1987;SDS011;12775;46.994;15.498;2022-12-29T09:50:46;16.94;;;14.62;;
1987;SDS011;12775;46.994;15.498;2022-12-29T09:53:16;20.42;;;14.48;;
1987;SDS011;12775;46.994;15.498;2022-12-29T09:55:47;20.64;;;14.52;;
1987;SDS011;12775;46.994;15.498;2022-12-29T09:58:15;14.50;;;13.20;;
1987;SDS011;12775;46.994;15.498;2022-12-29T10:03:40;17.40;;;13.90;;
1987;SDS011;12775;46.994;15.498;2022-12-29T10:06:22;15.96;;;13.20;;
1987;SDS011;12775;46.994;15.498;2022-12-29T10:08:52;13.92;;;11.84;;
1987;SDS011;12775;46.994;15.498;2022-12-29T10:14:15;23.06;;;13.70;;
1987;SDS011;12775;46.994;15.498;2022-12-29T10:16:51;12.80;;;11.40;;
1987;SDS011;12775;46.994;15.498;2022-12-29T10:19:25;15.66;;;12.02;;
1987;SDS011;12775;46.994;15.498;2022-12-29T10:21:54;19.96;;;11.94;;
1987;SDS011;12775;46.994;15.498;2022-12-29T10:24:18;14.60;;;12.60;;
1987;SDS011;12775;46.994;15.498;2022-12-29T10:26:45;13.00;;;11.60;;
1987;SDS011;12775;46.994;15.498;2022-12-29T10:29:19;13.62;;;10.62;;
1987;SDS011;12775;46.994;15.498;2022-12-29T10:31:50;14.36;;;10.80;;
1987;SDS011;12775;46.994;15.498;2022-12-29T10:34:26;14.52;;;10.92;;
1987;SDS011;12775;46.994;15.498;2022-12-29T10:36:57;15.26;;;12.54;;
1987;SDS011;12775;46.994;15.498;2022-12-29T10:39:30;17.90;;;11.30;;
1987;SDS011;12775;46.994;15.498;2022-12-29T10:41:58;16.54;;;11.64;;
1987;SDS011;12775;46.994;15.498;2022-12-29T10:44:24;13.92;;;11.64;;
1987;SDS011;12775;46.994;15.498;2022-12-29T10:46:54;12.34;;;10.42;;
1987;SDS011;12775;46.994;15.498;2022-12-29T10:49:19;13.30;;;11.44;;
1987;SDS011;12775;46.994;15.498;2022-12-29T10:51:48;14.34;;;10.38;;
1987;SDS011;12775;46.994;15.498;2022-12-29T10:54:19;13.24;;;10.94;;
1987;SDS011;12775;46.994;15.498;2022-12-29T10:56:50;14.76;;;12.14;;
1987;SDS011;12775;46.994;15.498;2022-12-29T10:59:20;13.70;;;10.98;;
1987;SDS011;12775;46.994;15.498;2022-12-29T11:05:23;11.98;;;10.30;;
1987;SDS011;12775;46.994;15.498;2022-12-29T11:07:33;12.96;;;9.88;;
1987;SDS011;12775;46.994;15.498;2022-12-29T11:12:40;12.30;;;10.20;;
1987;SDS011;12775;46.994;15.498;2022-12-29T11:15:12;11.74;;;10.36;;
1987;SDS011;12775;46.994;15.498;2022-12-29T11:17:47;15.90;;;11.96;;
1987;SDS011;12775;46.994;15.498;2022-12-29T11:20:32;12.40;;;11.08;;
1987;SDS011;12775;46.994;15.498;2022-12-29T11:22:58;10.64;;;9.58;;
1987;SDS011;12775;46.994;15.498;2022-12-29T11:25:26;15.48;;;10.32;;
1987;SDS011;12775;46.994;15.498;2022-12-29T11:27:55;14.68;;;12.34;;
1987;SDS011;12775;46.994;15.498;2022-12-29T11:30:25;18.88;;;11.34;;
1987;SDS011;12775;46.994;15.498;2022-12-29T11:32:52;12.20;;;9.56;;
1987;SDS011;12775;46.994;15.498;2022-12-29T11:35:29;13.12;;;10.16;;
1987;SDS011;12775;46.994;15.498;2022-12-29T11:37:53;12.92;;;10.34;;
1987;SDS011;12775;46.994;15.498;2022-12-29T11:40:19;11.28;;;9.26;;
1987;SDS011;12775;46.994;15.498;2022-12-29T11:42:48;11.44;;;10.34;;
1987;SDS011;12775;46.994;15.498;2022-12-29T11:45:18;12.84;;;9.84;;
1987;SDS011;12775;46.994;15.498;2022-12-29T11:47:48;12.44;;;11.12;;
1987;SDS011;12775;46.994;15.498;2022-12-29T11:50:20;10.96;;;9.20;;
1987;SDS011;12775;46.994;15.498;2022-12-29T11:52:46;11.50;;;9.92;;
1987;SDS011;12775;46.994;15.498;2022-12-29T11:55:20;10.90;;;9.20;;
1987;SDS011;12775;46.994;15.498;2022-12-29T11:57:47;14.26;;;9.80;;
1987;SDS011;12775;46.994;15.498;2022-12-29T12:00:18;12.98;;;11.12;;
1987;SDS011;12775;46.994;15.498;2022-12-29T12:02:45;19.74;;;13.42;;
1987;SDS011;12775;46.994;15.498;2022-12-29T12:05:24;20.02;;;13.70;;
1987;SDS011;12775;46.994;15.498;2022-12-29T12:07:53;16.48;;;12.76;;
1987;SDS011;12775;46.994;15.498;2022-12-29T12:10:25;17.68;;;12.28;;
1987;SDS011;12775;46.994;15.498;2022-12-29T12:12:52;19.08;;;10.84;;
1987;SDS011;12775;46.994;15.498;2022-12-29T12:15:29;11.84;;;10.68;;
1987;SDS011;12775;46.994;15.498;2022-12-29T12:18:01;14.52;;;8.88;;
1987;SDS011;12775;46.994;15.498;2022-12-29T12:20:28;16.04;;;9.64;;
1987;SDS011;12775;46.994;15.498;2022-12-29T12:22:58;10.18;;;8.98;;
1987;SDS011;12775;46.994;15.498;2022-12-29T12:25:29;10.04;;;9.06;;
1987;SDS011;12775;46.994;15.498;2022-12-29T12:27:57;9.36;;;8.20;;
1987;SDS011;12775;46.994;15.498;2022-12-29T12:30:25;10.78;;;7.60;;
1987;SDS011;12775;46.994;15.498;2022-12-29T12:32:55;8.44;;;6.98;;
1987;SDS011;12775;46.994;15.498;2022-12-29T12:35:44;6.10;;;5.28;;
1987;SDS011;12775;46.994;15.498;2022-12-29T12:38:24;8.04;;;5.26;;
1987;SDS011;12775;46.994;15.498;2022-12-29T12:40:59;6.28;;;5.10;;
1987;SDS011;12775;46.994;15.498;2022-12-29T12:49:17;6.50;;;4.88;;
1987;SDS011;12775;46.994;15.498;2022-12-29T12:54:29;4.34;;;3.94;;
1987;SDS011;12775;46.994;15.498;2022-12-29T12:57:17;5.70;;;4.66;;
1987;SDS011;12775;46.994;15.498;2022-12-29T13:00:01;6.54;;;4.44;;
1987;SDS011;12775;46.994;15.498;2022-12-29T13:07:50;6.08;;;3.88;;
1987;SDS011;12775;46.994;15.498;2022-12-29T13:10:19;4.64;;;4.20;;
1987;SDS011;12775;46.994;15.498;2022-12-29T13:18:26;4.98;;;4.54;;
1987;SDS011;12775;46.994;15.498;2022-12-29T13:21:00;5.44;;;3.98;;
1987;SDS011;12775;46.994;15.498;2022-12-29T13:23:34;4.62;;;3.84;;
1987;SDS011;12775;46.994;15.498;2022-12-29T13:26:08;5.72;;;4.10;;
1987;SDS011;12775;46.994;15.498;2022-12-29T13:28:43;5.78;;;4.62;;
1987;SDS011;12775;46.994;15.498;2022-12-29T13:31:11;5.40;;;3.82;;
1987;SDS011;12775;46.994;15.498;2022-12-29T13:33:47;6.60;;;4.24;;
1987;SDS011;12775;46.994;15.498;2022-12-29T13:36:13;7.68;;;4.80;;
1987;SDS011;12775;46.994;15.498;2022-12-29T13:38:56;5.52;;;4.24;;
1987;SDS011;12775;46.994;15.498;2022-12-29T13:41:31;4.30;;;4.00;;
1987;SDS011;12775;46.994;15.498;2022-12-29T13:43:57;5.56;;;5.02;;
1987;SDS011;12775;46.994;15.498;2022-12-29T13:46:28;4.42;;;3.94;;
1987;SDS011;12775;46.994;15.498;2022-12-29T13:48:59;5.16;;;4.24;;
1987;SDS011;12775;46.994;15.498;2022-12-29T13:51:28;3.88;;;3.58;;
1987;SDS011;12775;46.994;15.498;2022-12-29T13:54:05;3.68;;;3.38;;
1987;SDS011;12775;46.994;15.498;2022-12-29T13:59:42;4.16;;;3.30;;
1987;SDS011;12775;46.994;15.498;2022-12-29T14:02:19;4.20;;;3.26;;
1987;SDS011;12775;46.994;15.498;2022-12-29T14:07:23;3.50;;;3.20;;
1987;SDS011;12775;46.994;15.498;2022-12-29T14:09:50;3.96;;;3.56;;
1987;SDS011;12775;46.994;15.498;2022-12-29T14:12:19;5.82;;;4.10;;
1987;SDS011;12775;46.994;15.498;2022-12-29T14:14:45;5.84;;;3.72;;
1987;SDS011;12775;46.994;15.498;2022-12-29T14:17:16;4.02;;;3.56;;
1987;SDS011;12775;46.994;15.498;2022-12-29T14:19:41;7.94;;;7.14;;
1987;SDS011;12775;46.994;15.498;2022-12-29T14:22:07;10.00;;;8.96;;
1987;SDS011;12775;46.994;15.498;2022-12-29T14:24:39;9.80;;;8.80;;
1987;SDS011;12775;46.994;15.498;2022-12-29T14:30:06;4.52;;;3.62;;
1987;SDS011;12775;46.994;15.498;2022-12-29T14:32:36;4.10;;;3.50;;
1987;SDS011;12775;46.994;15.498;2022-12-29T14:35:31;4.48;;;4.06;;
1987;SDS011;12775;46.994;15.498;2022-12-29T14:37:47;5.12;;;3.60;;
1987;SDS011;12775;46.994;15.498;2022-12-29T14:40:18;5.22;;;3.20;;
1987;SDS011;12775;46.994;15.498;2022-12-29T14:42:47;5.64;;;4.50;;
1987;SDS011;12775;46.994;15.498;2022-12-29T14:45:31;5.10;;;3.98;;
1987;SDS011;12775;46.994;15.498;2022-12-29T14:48:01;4.48;;;4.08;;
1987;SDS011;12775;46.994;15.498;2022-12-29T14:50:39;7.78;;;6.12;;
1987;SDS011;12775;46.994;15.498;2022-12-29T14:53:40;12.44;;;8.86;;
1987;SDS011;12775;46.994;15.498;2022-12-29T14:55:54;34.28;;;11.90;;
1987;SDS011;12775;46.994;15.498;2022-12-29T14:58:28;15.08;;;8.90;;
1987;SDS011;12775;46.994;15.498;2022-12-29T15:00:54;13.68;;;8.94;;
1987;SDS011;12775;46.994;15.498;2022-12-29T15:03:25;9.50;;;7.32;;
1987;SDS011;12775;46.994;15.498;2022-12-29T15:05:53;9.54;;;6.66;;
1987;SDS011;12775;46.994;15.498;2022-12-29T15:08:20;7.20;;;5.90;;
1987;SDS011;12775;46.994;15.498;2022-12-29T15:10:49;10.84;;;6.70;;
1987;SDS011;12775;46.994;15.498;2022-12-29T15:13:18;9.26;;;6.04;;
1987;SDS011;12775;46.994;15.498;2022-12-29T15:15:44;12.36;;;6.70;;
1987;SDS011;12775;46.994;15.498;2022-12-29T15:18:14;11.44;;;5.94;;
1987;SDS011;12775;46.994;15.498;2022-12-29T15:20:40;9.56;;;5.84;;
1987;SDS011;12775;46.994;15.498;2022-12-29T15:23:09;8.34;;;6.22;;
1987;SDS011;12775;46.994;15.498;2022-12-29T15:25:35;7.76;;;5.32;;